Terminal Aerodrome Forecast
Issued by NWS Bismarck, ND

Home | Current Version | Previous Version | Graphics & Text | Print | Product List | Glossary On
Versions: 1 2 3 4 5 6 7 8 9 10 11 12 13 14 15 16 17
000
FTUS43 KBIS 141137
TAFISN
TAF
KISN 141137Z 1412/1512 28009KT P6SM OVC060
      TEMPO 1414/1416 BKN025
     FM141600 32016G24KT 6SM BLSN SCT040 BKN080
     FM142100 34014G22KT P6SM FEW250
     FM142300 34012KT P6SM SKC=

USA.gov is the U.S. government's official web portal to all federal, state and local government web resources and services.